Time;durP1;ratioP1;P1;durP2;ratioP2;P2;SDS_P1;SDS_P2;PMS_P1;PMS_P2;Temp;Humidity;BMP_temperature;BMP_pressure;BME280_temperature;BME280_humidity;BME280_pressure;Samples;Min_cycle;Max_cycle;Signal;HPM_P1;HPM_P2
2021/09/20 00:02:05;;;;;;;;;;;13.70;71.20;;;;;;5092030;28;19907;-76
2021/09/20 00:04:31;;;;;;;;;;;13.80;71.20;;;;;;5110319;28;19947;-77
2021/09/20 00:06:57;;;;;;;;;;;13.70;71.20;;;;;;5109858;28;19931;-77
2021/09/20 00:09:22;;;;;;;;;;;13.70;71.20;;;;;;5110047;28;19908;-76
2021/09/20 00:11:48;;;;;;;;;;;13.70;71.30;;;;;;5110036;28;19915;-77
2021/09/20 00:14:13;;;;;;;;;;;13.70;71.40;;;;;;5110193;28;19904;-77
2021/09/20 00:16:39;;;;;;;;;;;13.70;71.50;;;;;;5110016;28;19912;-75
2021/09/20 00:19:04;;;;;;;;;;;13.60;71.60;;;;;;5109854;28;20397;-76
2021/09/20 00:21:30;;;;;;;;;;;13.60;71.70;;;;;;5109881;28;20007;-76
2021/09/20 00:23:56;;;;;;;;;;;13.60;71.90;;;;;;5110008;28;20354;-77
2021/09/20 00:26:21;;;;;;;;;;;13.60;71.90;;;;;;5109772;28;19994;-77
2021/09/20 00:28:47;;;;;;;;;;;13.60;71.90;;;;;;5109615;28;20002;-75
2021/09/20 00:31:12;;;;;;;;;;;13.50;71.80;;;;;;5109642;28;19960;-76
2021/09/20 00:33:38;;;;;;;;;;;13.50;71.90;;;;;;5109635;28;19954;-76
2021/09/20 00:36:04;;;;;;;;;;;13.50;72.00;;;;;;5091282;28;19904;-76
2021/09/20 00:38:29;;;;;;;;;;;13.50;72.10;;;;;;5091243;28;20022;-76
2021/09/20 00:40:55;;;;;;;;;;;13.50;72.30;;;;;;5091157;28;19918;-76
2021/09/20 00:43:20;;;;;;;;;;;13.50;72.40;;;;;;5109459;28;19914;-75
2021/09/20 00:45:46;;;;;;;;;;;13.40;72.20;;;;;;5109349;28;20401;-76
2021/09/20 00:48:11;;;;;;;;;;;13.40;72.20;;;;;;5091086;28;19930;-75
2021/09/20 00:50:37;;;;;;;;;;;13.40;72.30;;;;;;5108973;28;19957;-74
2021/09/20 00:53:03;;;;;;;;;;;13.40;72.40;;;;;;5109250;28;20349;-77
2021/09/20 00:55:29;;;;;;;;;;;13.40;72.40;;;;;;5090885;28;19908;-76
2021/09/20 00:57:54;;;;;;;;;;;13.40;72.40;;;;;;5109698;28;19986;-76
2021/09/20 01:00:20;;;;;;;;;;;13.30;72.30;;;;;;5109049;28;19957;-76
2021/09/20 01:02:45;;;;;;;;;;;13.30;72.40;;;;;;5090918;28;19907;-76
2021/09/20 01:05:12;;;;;;;;;;;13.30;72.50;;;;;;5109028;28;19910;-76
2021/09/20 01:07:38;;;;;;;;;;;13.30;72.60;;;;;;5108737;28;20018;-77
2021/09/20 01:10:04;;;;;;;;;;;13.20;72.60;;;;;;5109031;28;19908;-76
2021/09/20 01:12:30;;;;;;;;;;;13.20;72.50;;;;;;5108739;28;20281;-76
2021/09/20 01:14:57;;;;;;;;;;;13.20;72.60;;;;;;5090765;28;19907;-77
2021/09/20 01:17:23;;;;;;;;;;;13.10;72.50;;;;;;5108894;28;20335;-77
2021/09/20 01:19:48;;;;;;;;;;;13.10;72.60;;;;;;5108698;28;19938;-75
2021/09/20 01:22:15;;;;;;;;;;;13.10;72.60;;;;;;5073603;28;19915;-76
2021/09/20 01:24:41;;;;;;;;;;;13.10;72.50;;;;;;5108675;28;19964;-77
2021/09/20 01:27:08;;;;;;;;;;;13.10;72.50;;;;;;5090373;28;19908;-77
2021/09/20 01:29:37;;;;;;;;;;;13.10;72.40;;;;;;5108629;28;20045;-77
2021/09/20 01:32:04;;;;;;;;;;;13.10;72.40;;;;;;5090412;28;19922;-77
2021/09/20 01:34:30;;;;;;;;;;;13.00;72.40;;;;;;5108613;28;19916;-77
2021/09/20 01:36:55;;;;;;;;;;;13.00;72.50;;;;;;5108623;28;19907;-76
2021/09/20 01:39:22;;;;;;;;;;;13.00;72.50;;;;;;5108498;28;19922;-76
2021/09/20 01:41:49;;;;;;;;;;;13.00;73.00;;;;;;5108612;28;20354;-75
2021/09/20 01:44:15;;;;;;;;;;;13.00;72.50;;;;;;5108582;28;19904;-79
2021/09/20 01:46:44;;;;;;;;;;;13.00;72.50;;;;;;5108431;28;19911;-74
2021/09/20 01:49:11;;;;;;;;;;;13.00;72.40;;;;;;5108484;28;20007;-76
2021/09/20 01:51:36;;;;;;;;;;;13.00;72.40;;;;;;5108503;28;19911;-75
2021/09/20 01:54:03;;;;;;;;;;;13.00;72.30;;;;;;5108423;28;20354;-76
2021/09/20 01:56:28;;;;;;;;;;;12.90;72.20;;;;;;5090436;28;19990;-75
2021/09/20 01:58:54;;;;;;;;;;;12.90;72.30;;;;;;5090170;28;20166;-75
2021/09/20 02:01:20;;;;;;;;;;;12.90;72.20;;;;;;5108261;28;20269;-77
2021/09/20 02:03:45;;;;;;;;;;;12.90;72.30;;;;;;5112621;28;20368;-77
2021/09/20 02:06:11;;;;;;;;;;;12.90;72.30;;;;;;5112395;28;19968;-77
2021/09/20 02:08:36;;;;;;;;;;;12.90;72.30;;;;;;5112518;28;19918;-75
2021/09/20 02:11:03;;;;;;;;;;;12.90;72.30;;;;;;5112474;28;19915;-78
2021/09/20 02:13:29;;;;;;;;;;;12.90;72.10;;;;;;5094281;28;20607;-76
2021/09/20 02:15:55;;;;;;;;;;;13.00;72.20;;;;;;5094313;28;19950;-76
2021/09/20 02:18:20;;;;;;;;;;;13.00;72.00;;;;;;5112332;28;19914;-75
2021/09/20 02:20:46;;;;;;;;;;;12.90;71.90;;;;;;5077208;28;20018;-74
2021/09/20 02:23:13;;;;;;;;;;;12.90;71.90;;;;;;5112263;28;19908;-75
2021/09/20 02:25:40;;;;;;;;;;;12.80;71.90;;;;;;5112059;28;19908;-76
2021/09/20 02:28:06;;;;;;;;;;;12.80;72.00;;;;;;5112283;28;20002;-78
2021/09/20 02:30:32;;;;;;;;;;;12.70;71.90;;;;;;5093796;28;19943;-77
2021/09/20 02:32:57;;;;;;;;;;;12.70;72.00;;;;;;5112645;28;20284;-76
2021/09/20 02:35:23;;;;;;;;;;;12.70;72.10;;;;;;5112152;28;19929;-77
2021/09/20 02:37:48;;;;;;;;;;;12.70;72.10;;;;;;5076707;28;19914;-74
2021/09/20 02:40:14;;;;;;;;;;;12.70;72.20;;;;;;5111999;28;19915;-76
2021/09/20 02:42:40;;;;;;;;;;;12.70;72.30;;;;;;5111841;28;19918;-76
2021/09/20 02:45:06;;;;;;;;;;;12.80;72.30;;;;;;5111860;28;19953;-76
2021/09/20 02:47:32;;;;;;;;;;;12.90;72.30;;;;;;5111752;28;19912;-77
2021/09/20 02:49:57;;;;;;;;;;;12.90;72.40;;;;;;5093380;28;19911;-75
2021/09/20 02:52:23;;;;;;;;;;;12.90;72.40;;;;;;5111734;28;20402;-76
2021/09/20 02:54:48;;;;;;;;;;;12.90;72.40;;;;;;5093502;28;19919;-77
2021/09/20 02:57:14;;;;;;;;;;;12.90;72.40;;;;;;5111584;28;19907;-75
2021/09/20 02:59:40;;;;;;;;;;;12.90;72.50;;;;;;5111699;28;19967;-75
2021/09/20 03:02:05;;;;;;;;;;;12.90;72.60;;;;;;5093199;28;19916;-76
2021/09/20 03:04:31;;;;;;;;;;;12.90;72.80;;;;;;5093175;28;20015;-77
2021/09/20 03:06:56;;;;;;;;;;;13.00;72.90;;;;;;5075878;28;19924;-76
2021/09/20 03:09:22;;;;;;;;;;;13.10;72.90;;;;;;5093046;28;19916;-74
2021/09/20 03:11:48;;;;;;;;;;;13.20;72.90;;;;;;5111272;28;20373;-77
2021/09/20 03:14:13;;;;;;;;;;;13.30;72.90;;;;;;5075983;28;20269;-77
2021/09/20 03:16:39;;;;;;;;;;;13.40;72.70;;;;;;5111101;28;19919;-77
2021/09/20 03:19:04;;;;;;;;;;;13.40;72.70;;;;;;5111126;28;19915;-75
2021/09/20 03:21:30;;;;;;;;;;;13.50;73.00;;;;;;5110966;28;20326;-78
2021/09/20 03:23:55;;;;;;;;;;;13.50;73.00;;;;;;5075876;28;19924;-76
2021/09/20 03:26:21;;;;;;;;;;;13.60;73.00;;;;;;5092525;28;20050;-78
2021/09/20 03:28:46;;;;;;;;;;;13.70;73.10;;;;;;5110821;28;20354;-75
2021/09/20 03:31:12;;;;;;;;;;;13.80;73.00;;;;;;5075752;28;20041;-76
2021/09/20 03:33:37;;;;;;;;;;;13.90;73.10;;;;;;5111059;28;19915;-75
2021/09/20 03:36:04;;;;;;;;;;;13.90;73.10;;;;;;5110913;28;19908;-77
2021/09/20 03:38:29;;;;;;;;;;;14.00;73.30;;;;;;5110930;28;20002;-78
2021/09/20 03:40:55;;;;;;;;;;;14.00;73.30;;;;;;5075493;28;20049;-78
2021/09/20 03:43:20;;;;;;;;;;;14.00;73.30;;;;;;5092374;28;19915;-77
2021/09/20 03:45:46;;;;;;;;;;;14.10;73.50;;;;;;5110584;28;19903;-76
2021/09/20 03:48:11;;;;;;;;;;;14.10;73.70;;;;;;5110599;28;19908;-78
2021/09/20 03:50:37;;;;;;;;;;;14.10;73.80;;;;;;5110220;28;19998;-76
2021/09/20 03:53:02;;;;;;;;;;;14.20;73.90;;;;;;5110431;28;20318;-76
2021/09/20 03:55:28;;;;;;;;;;;14.20;73.90;;;;;;5092121;28;19911;-78
2021/09/20 03:57:53;;;;;;;;;;;14.30;74.00;;;;;;5091973;28;19915;-76
2021/09/20 04:00:19;;;;;;;;;;;14.30;74.00;;;;;;5110148;28;19912;-76
2021/09/20 04:02:45;;;;;;;;;;;14.40;74.20;;;;;;5091878;28;19946;-77
2021/09/20 04:05:11;;;;;;;;;;;14.40;74.20;;;;;;5110030;28;19999;-77
2021/09/20 04:07:40;;;;;;;;;;;14.40;74.30;;;;;;5109669;28;19958;-75
2021/09/20 04:10:07;;;;;;;;;;;14.50;74.20;;;;;;5109914;28;19908;-76
2021/09/20 04:12:32;;;;;;;;;;;14.50;74.30;;;;;;5091819;28;19959;-77
2021/09/20 04:14:58;;;;;;;;;;;14.50;74.10;;;;;;5091707;28;19943;-77
2021/09/20 04:17:23;;;;;;;;;;;14.60;74.10;;;;;;5109922;28;19999;-77
2021/09/20 04:19:49;;;;;;;;;;;14.60;74.10;;;;;;5110014;28;19912;-77
2021/09/20 04:22:15;;;;;;;;;;;14.60;74.10;;;;;;5074692;28;19908;-74
2021/09/20 04:24:40;;;;;;;;;;;14.60;74.10;;;;;;5109240;28;19911;-77
2021/09/20 04:27:06;;;;;;;;;;;14.70;74.30;;;;;;5109823;28;19907;-76
2021/09/20 04:29:31;;;;;;;;;;;14.70;74.20;;;;;;5109750;28;19911;-77
2021/09/20 04:31:57;;;;;;;;;;;14.70;74.30;;;;;;5110074;28;19911;-76
2021/09/20 04:34:23;;;;;;;;;;;14.70;74.50;;;;;;5109796;28;19956;-78
2021/09/20 04:36:49;;;;;;;;;;;14.70;74.50;;;;;;5109629;28;19911;-75
2021/09/20 04:39:14;;;;;;;;;;;14.70;74.60;;;;;;5091165;28;19998;-76
2021/09/20 04:41:41;;;;;;;;;;;14.70;74.70;;;;;;5091268;28;19912;-76
2021/09/20 04:44:07;;;;;;;;;;;14.70;74.70;;;;;;5109569;28;20275;-75
2021/09/20 04:46:32;;;;;;;;;;;14.70;74.80;;;;;;5109408;28;19912;-76
2021/09/20 04:48:58;;;;;;;;;;;14.70;74.90;;;;;;5109413;28;19908;-76
2021/09/20 04:51:23;;;;;;;;;;;14.70;74.90;;;;;;5109508;28;19904;-76
2021/09/20 04:53:49;;;;;;;;;;;14.70;75.30;;;;;;5109786;28;20426;-77
2021/09/20 04:56:16;;;;;;;;;;;14.70;75.10;;;;;;5091138;28;19907;-75
2021/09/20 04:58:42;;;;;;;;;;;14.70;75.20;;;;;;5090926;28;19911;-78
2021/09/20 05:01:07;;;;;;;;;;;14.70;75.20;;;;;;5109246;28;19907;-76
2021/09/20 05:03:33;;;;;;;;;;;14.70;75.20;;;;;;5109220;28;20406;-77
2021/09/20 05:05:58;;;;;;;;;;;14.60;75.20;;;;;;5109021;28;19923;-74
2021/09/20 05:08:24;;;;;;;;;;;14.40;75.00;;;;;;5090685;28;19919;-76
2021/09/20 05:10:49;;;;;;;;;;;14.40;75.00;;;;;;5090785;28;19960;-77
2021/09/20 05:13:15;;;;;;;;;;;14.20;75.00;;;;;;5090626;28;19908;-75
2021/09/20 05:15:40;;;;;;;;;;;14.10;75.10;;;;;;5109357;28;20327;-76
2021/09/20 05:18:06;;;;;;;;;;;14.00;75.20;;;;;;5108875;28;20413;-78
2021/09/20 05:20:32;;;;;;;;;;;14.00;75.30;;;;;;5108971;28;19904;-76
2021/09/20 05:22:57;;;;;;;;;;;13.90;75.50;;;;;;5090502;28;19930;-76
2021/09/20 05:25:23;;;;;;;;;;;13.90;75.90;;;;;;5108721;28;19952;-77
2021/09/20 05:27:49;;;;;;;;;;;14.00;76.50;;;;;;5108405;28;19912;-75
2021/09/20 05:30:15;;;;;;;;;;;14.00;76.40;;;;;;5090461;28;19907;-76
2021/09/20 05:32:41;;;;;;;;;;;14.20;76.70;;;;;;5108645;28;20285;-77
2021/09/20 05:35:07;;;;;;;;;;;14.30;76.50;;;;;;5108850;28;20354;-77
2021/09/20 05:37:33;;;;;;;;;;;14.40;76.40;;;;;;5107932;28;19911;-76
2021/09/20 05:39:59;;;;;;;;;;;14.50;76.40;;;;;;5090276;28;19930;-76
2021/09/20 05:42:24;;;;;;;;;;;14.60;76.50;;;;;;5090257;28;19976;-76
2021/09/20 05:44:50;;;;;;;;;;;14.70;76.50;;;;;;5108538;28;19907;-77
2021/09/20 05:47:15;;;;;;;;;;;14.80;76.50;;;;;;5108372;28;19915;-75
2021/09/20 05:49:41;;;;;;;;;;;14.80;76.80;;;;;;5108409;28;19926;-78
2021/09/20 05:52:06;;;;;;;;;;;14.90;76.30;;;;;;5108306;28;19911;-76
2021/09/20 05:54:32;;;;;;;;;;;14.90;76.50;;;;;;5108298;28;20354;-76
2021/09/20 05:56:58;;;;;;;;;;;15.00;76.80;;;;;;5108237;28;19936;-77
2021/09/20 05:59:23;;;;;;;;;;;15.00;76.60;;;;;;5090073;28;20002;-76
2021/09/20 06:01:49;;;;;;;;;;;15.00;76.60;;;;;;5108204;28;19965;-77
2021/09/20 06:04:15;;;;;;;;;;;15.00;76.70;;;;;;5090054;28;19904;-75
2021/09/20 06:06:40;;;;;;;;;;;15.10;76.80;;;;;;5107916;28;19920;-78
2021/09/20 06:09:06;;;;;;;;;;;15.10;76.90;;;;;;5089853;28;19907;-77
2021/09/20 06:11:31;;;;;;;;;;;15.10;76.90;;;;;;5107815;28;19907;-75
2021/09/20 06:13:57;;;;;;;;;;;15.10;77.30;;;;;;5108126;28;20258;-75
2021/09/20 06:16:23;;;;;;;;;;;15.00;77.20;;;;;;5089739;28;20047;-76
2021/09/20 06:18:49;;;;;;;;;;;15.00;77.50;;;;;;5089570;28;19985;-75
2021/09/20 06:21:14;;;;;;;;;;;15.00;77.60;;;;;;5108288;28;19904;-77
2021/09/20 06:23:40;;;;;;;;;;;14.90;77.80;;;;;;5108055;28;20342;-76
2021/09/20 06:26:05;;;;;;;;;;;14.90;77.80;;;;;;5089699;28;19916;-76
2021/09/20 06:28:31;;;;;;;;;;;14.90;77.90;;;;;;5089345;28;20006;-76
2021/09/20 06:31:01;;;;;;;;;;;14.90;78.00;;;;;;5108224;28;19912;-75
2021/09/20 06:33:28;;;;;;;;;;;15.00;78.10;;;;;;5107969;28;19911;-77
2021/09/20 06:35:55;;;;;;;;;;;15.00;78.40;;;;;;5107997;28;19956;-77
2021/09/20 06:38:21;;;;;;;;;;;15.00;79.00;;;;;;5090211;28;20258;-76
2021/09/20 06:40:46;;;;;;;;;;;15.00;79.10;;;;;;5108095;28;19911;-74
2021/09/20 06:43:12;;;;;;;;;;;15.00;79.20;;;;;;5108034;28;19947;-76
2021/09/20 06:45:37;;;;;;;;;;;15.10;79.60;;;;;;5107978;28;19910;-75
2021/09/20 06:48:03;;;;;;;;;;;15.10;79.60;;;;;;5109994;28;20012;-76
2021/09/20 06:50:29;;;;;;;;;;;15.20;79.60;;;;;;5112742;28;19915;-76
2021/09/20 06:52:54;;;;;;;;;;;15.20;79.40;;;;;;5112294;28;19962;-75
2021/09/20 06:55:20;;;;;;;;;;;15.30;79.50;;;;;;5110924;28;19908;-77
2021/09/20 06:57:46;;;;;;;;;;;15.30;79.70;;;;;;5092803;28;20015;-74
2021/09/20 07:00:13;;;;;;;;;;;15.40;79.80;;;;;;5110793;28;19903;-76
2021/09/20 07:02:39;;;;;;;;;;;15.50;79.70;;;;;;5111011;28;20441;-78
2021/09/20 07:05:06;;;;;;;;;;;15.50;79.90;;;;;;5111550;28;19911;-76
2021/09/20 07:07:31;;;;;;;;;;;15.60;80.20;;;;;;5110952;28;19916;-77
2021/09/20 07:09:57;;;;;;;;;;;15.70;79.80;;;;;;5110620;28;20399;-77
2021/09/20 07:12:22;;;;;;;;;;;15.80;79.80;;;;;;5109932;28;19904;-72
2021/09/20 07:14:48;;;;;;;;;;;15.80;79.80;;;;;;5110957;28;19994;-79
2021/09/20 07:17:14;;;;;;;;;;;15.90;79.90;;;;;;5092896;28;20378;-77
2021/09/20 07:19:39;;;;;;;;;;;16.00;79.90;;;;;;5111293;28;19907;-78
2021/09/20 07:22:05;;;;;;;;;;;16.10;79.80;;;;;;5110517;28;19931;-77
2021/09/20 07:24:30;;;;;;;;;;;16.20;79.90;;;;;;5110431;28;19908;-75
2021/09/20 07:26:56;;;;;;;;;;;16.40;79.90;;;;;;5110165;28;19908;-76
2021/09/20 07:29:21;;;;;;;;;;;16.50;80.00;;;;;;5110261;28;19973;-75
2021/09/20 07:31:47;;;;;;;;;;;16.50;79.80;;;;;;5110287;28;19949;-76
2021/09/20 07:34:13;;;;;;;;;;;16.50;79.90;;;;;;5110594;28;20091;-78
2021/09/20 07:36:38;;;;;;;;;;;16.50;80.10;;;;;;5110782;28;20303;-74
2021/09/20 07:39:04;;;;;;;;;;;16.50;80.10;;;;;;5110868;28;19908;-76
2021/09/20 07:41:30;;;;;;;;;;;16.50;80.20;;;;;;5092015;28;19907;-76
2021/09/20 07:43:56;;;;;;;;;;;16.60;80.20;;;;;;5110464;28;19991;-76
2021/09/20 07:46:22;;;;;;;;;;;16.70;80.30;;;;;;5109874;28;20334;-75
2021/09/20 07:48:48;;;;;;;;;;;16.70;80.40;;;;;;5110008;28;20294;-76
2021/09/20 07:51:14;;;;;;;;;;;16.70;80.40;;;;;;5109884;28;19919;-75
2021/09/20 07:53:40;;;;;;;;;;;16.70;80.70;;;;;;5109969;28;19908;-74
2021/09/20 07:56:05;;;;;;;;;;;16.60;80.70;;;;;;5109406;28;19907;-76
2021/09/20 07:58:31;;;;;;;;;;;16.70;80.80;;;;;;5091323;28;20273;-75
2021/09/20 08:00:58;;;;;;;;;;;16.70;80.90;;;;;;5109313;28;20303;-74
2021/09/20 08:03:24;;;;;;;;;;;16.70;81.00;;;;;;5110696;28;19958;-77
2021/09/20 08:05:51;;;;;;;;;;;16.70;81.00;;;;;;5092392;28;19934;-75
2021/09/20 08:08:17;;;;;;;;;;;16.70;81.00;;;;;;5092015;28;19920;-75
2021/09/20 08:10:43;;;;;;;;;;;16.80;81.20;;;;;;5110164;28;19949;-75
2021/09/20 08:13:09;;;;;;;;;;;16.80;81.40;;;;;;5110590;28;19982;-75
2021/09/20 08:15:35;;;;;;;;;;;16.80;81.40;;;;;;5110797;28;19998;-74
2021/09/20 08:18:01;;;;;;;;;;;16.80;81.70;;;;;;5110412;28;19947;-73
2021/09/20 08:20:27;;;;;;;;;;;16.80;81.90;;;;;;5109181;28;20325;-73
2021/09/20 08:22:53;;;;;;;;;;;16.80;82.20;;;;;;5109918;28;19990;-75
2021/09/20 08:25:20;;;;;;;;;;;16.90;82.30;;;;;;5109976;28;20354;-74
2021/09/20 08:27:45;;;;;;;;;;;17.00;82.40;;;;;;5109244;28;19916;-75
2021/09/20 08:30:12;;;;;;;;;;;17.20;82.60;;;;;;5110126;28;19926;-75
2021/09/20 08:32:37;;;;;;;;;;;17.30;82.40;;;;;;5110212;28;19922;-75
2021/09/20 08:35:03;;;;;;;;;;;17.60;82.50;;;;;;5109889;28;19904;-73
2021/09/20 08:37:29;;;;;;;;;;;17.70;82.50;;;;;;5109874;28;19908;-74
2021/09/20 08:39:54;;;;;;;;;;;17.90;82.20;;;;;;5091622;28;20120;-74
2021/09/20 08:42:20;;;;;;;;;;;18.00;82.40;;;;;;5109938;28;20318;-75
2021/09/20 08:44:46;;;;;;;;;;;18.10;82.30;;;;;;5110032;28;19918;-75
2021/09/20 08:47:13;;;;;;;;;;;18.20;82.00;;;;;;5109761;28;19915;-75
2021/09/20 08:49:39;;;;;;;;;;;18.30;82.00;;;;;;5109788;28;20278;-76
2021/09/20 08:52:04;;;;;;;;;;;18.40;82.00;;;;;;5109361;28;19982;-74
2021/09/20 08:54:30;;;;;;;;;;;18.40;81.90;;;;;;5108994;28;20381;-73
2021/09/20 08:56:56;;;;;;;;;;;18.60;82.10;;;;;;5108894;28;19907;-78
2021/09/20 08:59:21;;;;;;;;;;;18.70;81.60;;;;;;5109355;28;20259;-76
2021/09/20 09:01:48;;;;;;;;;;;18.70;81.30;;;;;;5090828;28;19903;-74
2021/09/20 09:04:24;;;;;;;;;;;18.70;81.30;;;;;;5109256;28;19924;-76
2021/09/20 09:06:57;;;;;;;;;;;19.50;83.90;;;;;;5109093;28;19920;-75
2021/09/20 09:09:26;;;;;;;;;;;20.80;83.10;;;;;;5109315;28;19904;-74
2021/09/20 09:12:06;;;;;;;;;;;21.50;81.70;;;;;;5109791;28;19929;-76
2021/09/20 09:14:37;;;;;;;;;;;22.50;80.40;;;;;;5109877;28;19904;-75
2021/09/20 09:17:02;;;;;;;;;;;22.80;78.70;;;;;;5110198;28;20292;-75
2021/09/20 09:19:28;;;;;;;;;;;23.10;78.10;;;;;;5109678;28;19908;-74
2021/09/20 09:21:53;;;;;;;;;;;23.30;76.90;;;;;;5109473;28;19977;-75
2021/09/20 09:24:22;;;;;;;;;;;23.00;75.00;;;;;;5091470;28;19911;-75
2021/09/20 09:26:53;;;;;;;;;;;22.80;74.80;;;;;;5109637;28;19915;-76
2021/09/20 09:29:19;;;;;;;;;;;23.20;75.30;;;;;;5091762;28;20428;-76
2021/09/20 09:31:51;;;;;;;;;;;23.90;74.60;;;;;;5091520;28;19942;-76
2021/09/20 09:34:16;;;;;;;;;;;24.60;74.00;;;;;;5091050;28;19903;-75
2021/09/20 09:36:42;;;;;;;;;;;24.80;72.50;;;;;;5090960;28;19915;-76
2021/09/20 09:39:08;;;;;;;;;;;24.40;70.80;;;;;;5109220;28;19937;-75
2021/09/20 09:41:35;;;;;;;;;;;23.90;71.00;;;;;;5091403;28;19930;-75
2021/09/20 09:44:04;;;;;;;;;;;23.40;71.30;;;;;;5109213;28;19910;-76
2021/09/20 09:46:35;;;;;;;;;;;23.00;71.50;;;;;;5109209;28;19919;-76
2021/09/20 09:49:09;;;;;;;;;;;23.00;72.90;;;;;;5109533;28;19908;-76
2021/09/20 09:51:53;;;;;;;;;;;23.10;73.20;;;;;;5109489;28;19945;-75
2021/09/20 09:54:24;;;;;;;;;;;23.20;72.90;;;;;;5106052;28;19908;-75
2021/09/20 09:56:50;;;;;;;;;;;23.00;71.80;;;;;;5108365;28;19958;-74
2021/09/20 09:59:25;;;;;;;;;;;22.80;71.40;;;;;;5090077;28;20364;-74
2021/09/20 10:01:50;;;;;;;;;;;22.60;72.00;;;;;;5106268;28;19916;-76
2021/09/20 10:04:23;;;;;;;;;;;23.00;73.70;;;;;;5109364;28;20320;-75
2021/09/20 10:06:54;;;;;;;;;;;23.50;72.60;;;;;;5108373;28;19920;-72
2021/09/20 10:09:21;;;;;;;;;;;23.70;71.20;;;;;;5108556;28;19918;-76
2021/09/20 10:11:47;;;;;;;;;;;23.70;71.20;;;;;;5108872;28;19904;-73
2021/09/20 10:14:13;;;;;;;;;;;24.20;71.30;;;;;;5108496;28;19976;-73
2021/09/20 10:16:40;;;;;;;;;;;24.60;70.50;;;;;;5108346;28;19964;-74
2021/09/20 10:19:05;;;;;;;;;;;24.60;69.90;;;;;;5090117;28;19912;-76
2021/09/20 10:21:33;;;;;;;;;;;24.60;70.40;;;;;;5109031;28;20334;-74
2021/09/20 10:23:59;;;;;;;;;;;25.10;71.00;;;;;;5112128;28;19910;-73
2021/09/20 10:26:25;;;;;;;;;;;25.90;70.80;;;;;;5113326;28;20282;-76
2021/09/20 10:28:52;;;;;;;;;;;26.30;69.30;;;;;;5112558;28;19918;-77
2021/09/20 10:31:18;;;;;;;;;;;26.00;67.30;;;;;;5113207;28;19927;-76
2021/09/20 10:33:44;;;;;;;;;;;25.40;66.50;;;;;;5094959;28;19912;-77
2021/09/20 10:36:09;;;;;;;;;;;25.20;67.20;;;;;;5094740;28;20346;-74
2021/09/20 10:38:35;;;;;;;;;;;25.70;68.00;;;;;;5094298;28;19950;-75
2021/09/20 10:41:21;;;;;;;;;;;26.30;68.30;;;;;;5112782;28;19930;-73
2021/09/20 10:43:48;;;;;;;;;;;27.10;67.70;;;;;;5112389;28;19907;-77
2021/09/20 10:46:21;;;;;;;;;;;27.80;66.70;;;;;;5112248;28;19986;-75
2021/09/20 10:48:50;;;;;;;;;;;27.70;65.80;;;;;;5093935;28;19903;-76
2021/09/20 10:51:18;;;;;;;;;;;28.00;65.40;;;;;;5112004;28;20369;-76
2021/09/20 10:53:44;;;;;;;;;;;28.60;64.30;;;;;;5112042;28;20319;-77
2021/09/20 10:56:11;;;;;;;;;;;29.00;63.50;;;;;;5108965;28;19911;-74
2021/09/20 10:58:51;;;;;;;;;;;29.50;62.80;;;;;;5111446;28;20334;-74
2021/09/20 11:01:19;;;;;;;;;;;29.80;61.30;;;;;;5110004;28;20349;-75
2021/09/20 11:03:49;;;;;;;;;;;29.20;60.60;;;;;;5111480;28;20466;-74
2021/09/20 11:06:24;;;;;;;;;;;29.10;62.20;;;;;;5111582;28;19907;-77
2021/09/20 11:08:58;;;;;;;;;;;29.30;61.30;;;;;;5111344;28;19934;-76
2021/09/20 11:11:40;;;;;;;;;;;29.50;60.70;;;;;;5111902;28;19910;-74
2021/09/20 11:14:07;;;;;;;;;;;30.00;60.80;;;;;;5107559;28;19904;-75
2021/09/20 11:16:45;;;;;;;;;;;30.50;61.00;;;;;;5111033;28;19918;-74
2021/09/20 11:19:26;;;;;;;;;;;30.90;60.60;;;;;;5111031;28;19926;-75
2021/09/20 11:22:13;;;;;;;;;;;31.40;59.80;;;;;;5110958;28;19903;-75
2021/09/20 11:24:39;;;;;;;;;;;31.30;58.30;;;;;;5108491;28;19904;-77
2021/09/20 11:27:06;;;;;;;;;;;30.50;58.70;;;;;;5093162;28;19908;-77
2021/09/20 11:29:32;;;;;;;;;;;30.20;58.90;;;;;;5110648;28;19911;-76
2021/09/20 11:32:02;;;;;;;;;;;29.80;59.30;;;;;;5110867;28;19908;-75
2021/09/20 11:34:28;;;;;;;;;;;29.10;59.20;;;;;;5111388;28;19903;-75
2021/09/20 11:36:53;;;;;;;;;;;28.30;59.10;;;;;;5110784;28;19915;-74
2021/09/20 11:39:19;;;;;;;;;;;27.60;59.90;;;;;;5110996;28;19911;-74
2021/09/20 11:41:59;;;;;;;;;;;27.00;59.80;;;;;;5111411;28;20014;-74
2021/09/20 11:44:28;;;;;;;;;;;26.60;60.10;;;;;;5110907;28;19911;-75
2021/09/20 11:46:54;;;;;;;;;;;26.10;59.80;;;;;;5111089;28;19917;-75
2021/09/20 11:49:20;;;;;;;;;;;25.60;60.10;;;;;;5111551;28;20342;-76
2021/09/20 11:51:46;;;;;;;;;;;25.60;61.30;;;;;;5111510;28;19903;-76
2021/09/20 11:54:30;;;;;;;;;;;26.00;61.90;;;;;;5111113;28;19931;-74
2021/09/20 11:57:09;;;;;;;;;;;26.70;62.10;;;;;;5110917;28;19908;-71
2021/09/20 11:59:35;;;;;;;;;;;27.60;61.40;;;;;;5107529;28;20303;-74
2021/09/20 12:02:00;;;;;;;;;;;28.00;61.60;;;;;;5109978;28;19946;-74
2021/09/20 12:04:43;;;;;;;;;;;28.40;60.90;;;;;;5110560;28;19912;-76
2021/09/20 12:07:09;;;;;;;;;;;28.80;60.00;;;;;;5109623;28;19963;-76
2021/09/20 12:09:37;;;;;;;;;;;29.30;60.00;;;;;;5110726;28;19984;-76
2021/09/20 12:12:06;;;;;;;;;;;29.90;60.80;;;;;;5110897;28;19957;-74
2021/09/20 12:14:31;;;;;;;;;;;30.30;61.10;;;;;;5110234;28;19903;-76
2021/09/20 12:16:57;;;;;;;;;;;30.80;61.60;;;;;;5110637;28;20268;-75
2021/09/20 12:19:23;;;;;;;;;;;31.10;61.90;;;;;;5091929;28;19915;-74
2021/09/20 12:21:58;;;;;;;;;;;31.20;61.30;;;;;;5110871;28;19912;-78
2021/09/20 12:24:23;;;;;;;;;;;31.30;60.30;;;;;;5110364;28;19909;-78
2021/09/20 12:26:49;;;;;;;;;;;31.40;59.40;;;;;;5110035;28;20297;-76
2021/09/20 12:29:14;;;;;;;;;;;31.20;59.40;;;;;;5091544;28;19911;-76
2021/09/20 12:31:41;;;;;;;;;;;31.10;59.30;;;;;;5109822;28;20272;-74
2021/09/20 12:34:16;;;;;;;;;;;31.10;58.90;;;;;;5110551;28;19914;-76
2021/09/20 12:36:51;;;;;;;;;;;31.00;58.40;;;;;;5110756;28;19908;-76
2021/09/20 12:39:17;;;;;;;;;;;31.00;58.40;;;;;;5110225;28;19939;-77
2021/09/20 12:41:44;;;;;;;;;;;31.10;59.20;;;;;;5090413;28;19943;-75
2021/09/20 12:44:11;;;;;;;;;;;30.80;58.80;;;;;;5109114;28;19932;-76
2021/09/20 12:46:37;;;;;;;;;;;30.40;59.40;;;;;;5108713;28;20365;-75
2021/09/20 12:49:04;;;;;;;;;;;30.50;60.00;;;;;;5109618;28;20282;-75
2021/09/20 12:51:34;;;;;;;;;;;30.70;59.30;;;;;;5109982;28;19915;-76
2021/09/20 12:54:00;;;;;;;;;;;30.90;59.50;;;;;;5109021;28;19986;-76
2021/09/20 12:56:34;;;;;;;;;;;30.70;58.60;;;;;;5089553;28;20021;-74
2021/09/20 12:59:13;;;;;;;;;;;30.80;59.20;;;;;;5107694;28;19923;-76
2021/09/20 13:01:46;;;;;;;;;;;31.00;58.70;;;;;;5108060;28;19950;-75
2021/09/20 13:04:21;;;;;;;;;;;30.80;58.30;;;;;;5108518;28;20328;-75
2021/09/20 13:07:10;;;;;;;;;;;30.40;58.10;;;;;;5108628;28;19915;-75
2021/09/20 13:09:36;;;;;;;;;;;29.90;57.50;;;;;;5090676;28;19914;-75
2021/09/20 13:12:03;;;;;;;;;;;29.30;56.80;;;;;;5109778;28;19904;-74
2021/09/20 13:14:30;;;;;;;;;;;28.70;56.70;;;;;;5091412;28;19910;-74
2021/09/20 13:17:04;;;;;;;;;;;28.10;57.10;;;;;;5091530;28;19920;-75
2021/09/20 13:19:29;;;;;;;;;;;27.70;56.90;;;;;;5109364;28;19914;-74
2021/09/20 13:22:02;;;;;;;;;;;27.10;57.00;;;;;;5109274;28;19912;-74
2021/09/20 13:24:28;;;;;;;;;;;26.70;57.30;;;;;;5109003;28;19903;-71
2021/09/20 13:26:54;;;;;;;;;;;26.40;57.50;;;;;;5109459;28;19915;-74
2021/09/20 13:29:19;;;;;;;;;;;26.00;57.30;;;;;;5091052;28;20304;-76
2021/09/20 13:31:47;;;;;;;;;;;25.40;57.30;;;;;;5091062;28;20218;-76
2021/09/20 13:34:12;;;;;;;;;;;24.90;57.60;;;;;;5109236;28;20327;-75
2021/09/20 13:36:38;;;;;;;;;;;24.40;58.10;;;;;;5109154;28;19938;-76
2021/09/20 13:39:03;;;;;;;;;;;24.10;58.60;;;;;;5109351;28;19907;-76
2021/09/20 13:41:29;;;;;;;;;;;23.70;59.30;;;;;;5109260;28;19916;-77
2021/09/20 13:43:55;;;;;;;;;;;23.40;59.50;;;;;;5109326;28;19907;-77
2021/09/20 13:46:25;;;;;;;;;;;23.10;59.70;;;;;;5090636;28;19934;-75
2021/09/20 13:48:52;;;;;;;;;;;22.90;60.20;;;;;;5109883;28;19942;-75
2021/09/20 13:51:17;;;;;;;;;;;22.70;60.40;;;;;;5090835;28;19904;-75
2021/09/20 13:53:44;;;;;;;;;;;22.60;60.60;;;;;;5108399;28;19908;-74
2021/09/20 13:56:10;;;;;;;;;;;22.50;60.70;;;;;;5090605;28;19942;-77
2021/09/20 13:58:35;;;;;;;;;;;22.50;60.70;;;;;;5110670;28;19908;-75
2021/09/20 14:01:02;;;;;;;;;;;22.50;60.80;;;;;;5095075;28;19912;-76
2021/09/20 14:03:27;;;;;;;;;;;22.50;61.00;;;;;;5113695;28;19920;-76
2021/09/20 14:05:53;;;;;;;;;;;22.60;61.10;;;;;;5095461;28;20284;-76
2021/09/20 14:08:20;;;;;;;;;;;22.60;61.30;;;;;;5113611;28;19923;-76
2021/09/20 14:10:46;;;;;;;;;;;22.60;61.20;;;;;;5113816;28;19903;-79
2021/09/20 14:13:12;;;;;;;;;;;22.60;61.10;;;;;;5095392;28;19911;-77
2021/09/20 14:15:38;;;;;;;;;;;22.70;61.30;;;;;;5113798;28;19911;-75